createdAt,value
2022-10-16T00:01:09.512Z,2.33
2022-10-16T00:03:39.480Z,2.87
2022-10-16T00:06:08.508Z,2.50
2022-10-16T00:08:36.620Z,2.80
2022-10-16T00:11:06.686Z,2.80
2022-10-16T00:13:35.434Z,2.53
2022-10-16T00:16:04.235Z,2.80
2022-10-16T00:18:32.669Z,2.57
2022-10-16T00:21:06.275Z,2.63
2022-10-16T00:23:34.451Z,2.70
2022-10-16T00:26:06.921Z,2.63
2022-10-16T00:28:34.897Z,2.47
2022-10-16T00:31:06.135Z,2.50
2022-10-16T00:33:33.854Z,1.90
2022-10-16T00:36:01.713Z,2.30
2022-10-16T00:38:30.781Z,2.93
2022-10-16T00:40:58.860Z,2.40
2022-10-16T00:43:39.806Z,4.20
2022-10-16T00:46:15.535Z,2.23
2022-10-16T00:48:45.379Z,2.47
2022-10-16T00:51:13.315Z,1.90
2022-10-16T00:53:43.094Z,2.03
2022-10-16T00:56:11.086Z,2.03
2022-10-16T00:58:38.674Z,2.83
2022-10-16T01:01:06.872Z,1.70
2022-10-16T01:03:37.268Z,1.97
2022-10-16T01:06:20.749Z,2.40
2022-10-16T01:09:00.841Z,1.90
2022-10-16T01:11:35.204Z,1.63
2022-10-16T01:14:11.081Z,2.40
2022-10-16T01:16:45.429Z,2.20
2022-10-16T01:19:18.431Z,2.10
2022-10-16T01:21:50.150Z,2.40
2022-10-16T01:24:32.328Z,2.10
2022-10-16T01:27:09.237Z,1.80
2022-10-16T01:29:42.123Z,1.83
2022-10-16T01:32:16.358Z,1.97
2022-10-16T01:34:50.109Z,1.73
2022-10-16T01:37:23.521Z,1.90
2022-10-16T01:39:55.800Z,1.40
2022-10-16T01:42:31.144Z,1.63
2022-10-16T01:45:02.166Z,1.73
2022-10-16T01:47:33.534Z,1.83
2022-10-16T01:50:06.039Z,1.37
2022-10-16T01:52:37.994Z,1.27
2022-10-16T01:55:08.696Z,1.60
2022-10-16T01:57:40.911Z,1.60
2022-10-16T02:00:13.908Z,1.90
2022-10-16T02:02:43.703Z,1.30
2022-10-16T02:05:18.813Z,1.63
2022-10-16T02:07:47.722Z,1.67
2022-10-16T02:10:15.535Z,1.50
2022-10-16T02:12:50.447Z,1.30
2022-10-16T02:15:18.280Z,2.40
2022-10-16T02:17:46.366Z,1.57
2022-10-16T02:20:14.126Z,1.50
2022-10-16T02:22:47.839Z,1.37
2022-10-16T02:25:21.842Z,1.70
2022-10-16T02:27:57.168Z,1.40
2022-10-16T02:30:29.544Z,1.53
2022-10-16T02:32:59.042Z,2.27
2022-10-16T02:35:28.104Z,1.70
2022-10-16T02:37:58.033Z,2.10
2022-10-16T02:40:26.370Z,1.63
2022-10-16T02:42:57.302Z,1.70
2022-10-16T02:45:25.837Z,1.57
2022-10-16T02:47:53.499Z,1.57
2022-10-16T02:50:21.443Z,1.97
2022-10-16T02:52:49.089Z,1.60
2022-10-16T02:55:17.086Z,1.77
2022-10-16T02:57:44.671Z,1.53
2022-10-16T03:00:16.819Z,2.10
2022-10-16T03:02:44.492Z,1.83
2022-10-16T03:05:12.957Z,1.90
2022-10-16T03:07:40.680Z,1.70
2022-10-16T03:10:09.656Z,1.40
2022-10-16T03:12:37.461Z,2.00
2022-10-16T03:15:06.089Z,2.33
2022-10-16T03:17:35.669Z,2.00
2022-10-16T03:20:04.140Z,1.90
2022-10-16T03:22:32.185Z,1.50
2022-10-16T03:25:00.137Z,1.80
2022-10-16T03:27:28.708Z,2.67
2022-10-16T03:29:56.710Z,1.60
2022-10-16T03:32:26.023Z,1.90
2022-10-16T03:34:57.342Z,1.90
2022-10-16T03:37:25.837Z,2.27
2022-10-16T03:39:54.202Z,1.67
2022-10-16T03:42:21.780Z,1.80
2022-10-16T03:44:49.423Z,1.63
2022-10-16T03:47:21.870Z,1.63
2022-10-16T03:49:49.656Z,1.97
2022-10-16T03:54:51.725Z,1.60
2022-10-16T03:57:19.651Z,2.00
2022-10-16T03:59:47.531Z,2.30
2022-10-16T04:02:15.173Z,1.90
2022-10-16T04:04:43.113Z,2.23
2022-10-16T04:07:11.486Z,2.10
2022-10-16T04:09:40.790Z,1.80
2022-10-16T04:12:08.812Z,2.03
2022-10-16T04:14:36.509Z,3.20
2022-10-16T04:17:04.973Z,1.60
2022-10-16T04:19:32.551Z,1.90
2022-10-16T04:22:00.696Z,2.17
2022-10-16T04:24:28.363Z,1.80
2022-10-16T04:26:57.501Z,2.47
2022-10-16T04:29:25.455Z,1.63
2022-10-16T04:31:53.038Z,2.00
2022-10-16T04:34:20.878Z,2.30
2022-10-16T04:36:49.121Z,2.03
2022-10-16T04:39:16.806Z,1.80
2022-10-16T04:41:44.510Z,1.83
2022-10-16T04:44:13.487Z,1.87
2022-10-16T04:46:41.533Z,1.50
2022-10-16T04:49:09.176Z,1.67
2022-10-16T04:51:37.254Z,1.67
2022-10-16T04:54:05.230Z,1.43
2022-10-16T04:56:32.847Z,2.00
2022-10-16T04:59:00.740Z,1.33
2022-10-16T05:01:30.037Z,1.77
2022-10-16T05:03:57.672Z,1.53
2022-10-16T05:06:26.115Z,1.90
2022-10-16T05:08:54.218Z,1.90
2022-10-16T05:11:22.152Z,2.30
2022-10-16T05:13:52.132Z,1.93
2022-10-16T05:16:23.435Z,2.00
2022-10-16T05:19:00.055Z,1.50
2022-10-16T05:21:32.522Z,2.13
2022-10-16T05:24:00.196Z,1.83
2022-10-16T05:26:28.180Z,2.03
2022-10-16T05:28:55.839Z,1.43
2022-10-16T05:31:24.266Z,1.63
2022-10-16T05:33:53.167Z,1.80
2022-10-16T05:36:21.157Z,1.20
2022-10-16T05:38:52.577Z,1.80
2022-10-16T05:41:22.317Z,1.88
2022-10-16T05:43:50.289Z,1.80
2022-10-16T05:46:18.825Z,2.30
2022-10-16T05:48:46.965Z,1.83
2022-10-16T05:51:16.900Z,1.30
2022-10-16T05:56:17.239Z,1.73
2022-10-16T05:58:45.238Z,2.10
2022-10-16T06:01:15.635Z,2.37
2022-10-16T06:03:43.406Z,2.27
2022-10-16T06:06:13.187Z,2.30
2022-10-16T06:08:44.932Z,2.47
2022-10-16T06:11:14.717Z,2.80
2022-10-16T06:13:43.650Z,2.60
2022-10-16T06:16:12.165Z,2.83
2022-10-16T06:18:40.624Z,2.00
2022-10-16T06:21:13.197Z,2.50
2022-10-16T06:23:42.194Z,2.30
2022-10-16T06:26:11.380Z,2.00
2022-10-16T06:28:40.212Z,1.70
2022-10-16T06:31:09.754Z,2.00
2022-10-16T06:33:37.930Z,2.10
2022-10-16T06:36:07.294Z,3.17
2022-10-16T06:38:34.961Z,2.20
2022-10-16T06:41:04.149Z,2.30
2022-10-16T06:43:33.430Z,2.00
2022-10-16T06:46:02.192Z,2.03
2022-10-16T06:48:30.566Z,2.27
2022-10-16T06:50:59.927Z,2.47
2022-10-16T06:53:29.084Z,2.73
2022-10-16T06:55:57.720Z,2.50
2022-10-16T06:58:27.095Z,3.33
2022-10-16T07:00:57.828Z,2.17
2022-10-16T07:03:25.828Z,3.00
2022-10-16T07:05:53.616Z,2.93
2022-10-16T07:08:21.181Z,1.83
2022-10-16T07:10:49.250Z,2.10
2022-10-16T07:13:17.172Z,1.87
2022-10-16T07:15:46.211Z,2.30
2022-10-16T07:18:14.186Z,2.13
2022-10-16T07:20:41.800Z,2.70
2022-10-16T07:23:09.467Z,1.97
2022-10-16T07:25:37.215Z,2.33
2022-10-16T07:28:05.822Z,2.20
2022-10-16T07:30:37.385Z,2.23
2022-10-16T07:33:06.453Z,2.07
2022-10-16T07:35:34.206Z,1.97
2022-10-16T07:38:02.416Z,2.20
2022-10-16T07:40:30.429Z,2.17
2022-10-16T07:42:58.190Z,2.73
2022-10-16T07:45:25.879Z,2.10
2022-10-16T07:47:53.448Z,2.37
2022-10-16T07:50:22.803Z,3.00
2022-10-16T07:52:50.471Z,2.80
2022-10-16T07:55:18.127Z,3.23
2022-10-16T07:57:45.740Z,3.13
2022-10-16T08:00:14.916Z,3.53
2022-10-16T08:02:43.189Z,3.33
2022-10-16T08:05:11.357Z,2.67
2022-10-16T08:07:40.638Z,2.70
2022-10-16T08:10:10.658Z,2.40
2022-10-16T08:12:38.655Z,2.67
2022-10-16T08:15:07.738Z,3.83
2022-10-16T08:17:35.353Z,4.20
2022-10-16T08:20:03.304Z,3.47
2022-10-16T08:22:32.112Z,2.67
2022-10-16T08:25:01.499Z,2.80
2022-10-16T08:27:33.201Z,3.20
2022-10-16T08:30:01.624Z,2.60
2022-10-16T08:32:29.446Z,2.20
2022-10-16T08:34:59.450Z,2.50
2022-10-16T08:37:27.190Z,2.73
2022-10-16T08:39:55.894Z,2.17
2022-10-16T08:42:37.893Z,2.50
2022-10-16T08:45:27.826Z,2.97
2022-10-16T08:48:07.912Z,2.17
2022-10-16T08:50:41.664Z,2.90
2022-10-16T08:53:17.862Z,2.30
2022-10-16T08:55:49.034Z,3.03
2022-10-16T08:58:19.741Z,3.73
2022-10-16T09:00:51.092Z,2.77
2022-10-16T09:03:36.391Z,3.17
2022-10-16T09:06:21.986Z,3.20
2022-10-16T09:09:06.378Z,3.50
2022-10-16T09:11:47.718Z,2.53
2022-10-16T09:14:37.906Z,2.67
2022-10-16T09:17:22.475Z,3.40
2022-10-16T09:19:56.321Z,2.57
2022-10-16T09:22:30.314Z,3.23
2022-10-16T09:25:02.784Z,3.00
2022-10-16T09:27:31.085Z,3.50
2022-10-16T09:30:00.422Z,2.87
2022-10-16T09:32:30.194Z,2.13
2022-10-16T09:34:59.248Z,2.53
2022-10-16T09:37:28.327Z,2.60
2022-10-16T09:39:57.094Z,2.37
2022-10-16T09:42:29.518Z,2.93
2022-10-16T09:45:00.160Z,1.73
2022-10-16T09:47:30.565Z,3.20
2022-10-16T09:50:03.041Z,1.70
2022-10-16T09:52:31.696Z,2.57
2022-10-16T09:55:00.847Z,1.87
2022-10-16T09:57:29.852Z,2.13
2022-10-16T10:00:00.649Z,1.73
2022-10-16T10:02:33.249Z,1.63
2022-10-16T10:05:01.143Z,1.60
2022-10-16T10:07:34.477Z,2.10
2022-10-16T10:10:04.726Z,1.40
2022-10-16T10:12:35.574Z,1.53
2022-10-16T10:15:09.932Z,1.57
2022-10-16T10:17:47.849Z,1.90
2022-10-16T10:20:25.344Z,1.63
2022-10-16T10:22:52.967Z,1.97
2022-10-16T10:25:35.013Z,1.70
2022-10-16T10:28:23.139Z,1.40
2022-10-16T10:30:59.626Z,1.60
2022-10-16T10:33:35.654Z,1.70
2022-10-16T10:36:14.250Z,1.63
2022-10-16T10:38:50.071Z,1.37
2022-10-16T10:41:35.074Z,1.73
2022-10-16T10:44:09.568Z,1.20
2022-10-16T10:46:45.750Z,1.80
2022-10-16T10:49:37.525Z,2.30
2022-10-16T10:52:25.336Z,1.57
2022-10-16T10:55:02.333Z,1.60
2022-10-16T10:57:32.571Z,1.90
2022-10-16T11:00:21.202Z,1.70
2022-10-16T11:02:57.881Z,1.77
2022-10-16T11:05:31.720Z,1.60
2022-10-16T11:08:02.821Z,1.43
2022-10-16T11:10:36.519Z,1.80
2022-10-16T11:13:18.702Z,1.30
2022-10-16T11:18:31.941Z,1.50
2022-10-16T11:21:04.711Z,1.50
2022-10-16T11:23:37.089Z,1.20
2022-10-16T11:26:12.775Z,1.30
2022-10-16T11:28:47.644Z,1.80
2022-10-16T11:31:20.610Z,2.00
2022-10-16T11:33:55.170Z,1.40
2022-10-16T11:36:27.604Z,2.27
2022-10-16T11:39:05.331Z,1.43
2022-10-16T11:41:38.207Z,1.70
2022-10-16T11:44:21.318Z,1.57
2022-10-16T11:47:00.951Z,1.27
2022-10-16T11:49:48.079Z,1.30
2022-10-16T11:52:22.280Z,0.90
2022-10-16T11:54:56.296Z,1.50
2022-10-16T11:57:29.351Z,1.13
2022-10-16T12:00:02.261Z,1.27
2022-10-16T12:02:52.179Z,1.67
2022-10-16T12:05:33.903Z,1.03
2022-10-16T12:08:12.309Z,0.97
2022-10-16T12:10:42.021Z,1.50
2022-10-16T12:13:32.663Z,1.20
2022-10-16T12:16:07.808Z,1.80
2022-10-16T12:18:35.911Z,1.80
2022-10-16T12:21:07.655Z,1.33
2022-10-16T12:23:39.791Z,0.90
2022-10-16T12:26:08.182Z,1.20
2022-10-16T12:28:36.525Z,1.13
2022-10-16T12:31:07.120Z,1.23
2022-10-16T12:33:38.162Z,1.50
2022-10-16T12:36:15.588Z,2.50
2022-10-16T12:38:49.356Z,1.30
2022-10-16T12:41:27.703Z,1.53
2022-10-16T12:43:55.536Z,1.80
2022-10-16T12:46:40.137Z,1.60
2022-10-16T12:49:22.192Z,1.50
2022-10-16T12:51:51.910Z,1.03
2022-10-16T12:54:22.610Z,1.20
2022-10-16T12:57:22.091Z,1.50
2022-10-16T12:59:55.873Z,1.67
2022-10-16T13:02:47.181Z,1.40
2022-10-16T13:05:27.122Z,1.30
2022-10-16T13:08:06.758Z,1.90
2022-10-16T13:10:42.399Z,2.53
2022-10-16T13:13:26.314Z,2.00
2022-10-16T13:16:07.260Z,1.30
2022-10-16T13:18:46.559Z,1.40
2022-10-16T13:21:27.669Z,1.33
2022-10-16T13:24:04.510Z,1.40
2022-10-16T13:26:43.696Z,1.43
2022-10-16T13:29:11.919Z,2.07
2022-10-16T13:31:41.457Z,1.30
2022-10-16T13:34:17.100Z,2.00
2022-10-16T13:36:47.395Z,1.43
2022-10-16T13:39:22.781Z,1.20
2022-10-16T13:42:06.263Z,1.40
2022-10-16T13:44:42.184Z,1.13
2022-10-16T13:47:18.190Z,2.03
2022-10-16T13:49:47.090Z,2.70
2022-10-16T13:52:21.031Z,1.60
2022-10-16T13:54:50.450Z,1.83
2022-10-16T13:57:33.863Z,2.20
2022-10-16T14:00:01.744Z,3.40
2022-10-16T14:02:36.290Z,2.00
2022-10-16T14:05:07.123Z,2.10
2022-10-16T14:07:36.697Z,1.90
2022-10-16T14:10:09.019Z,1.93
2022-10-16T14:12:37.748Z,3.73
2022-10-16T14:15:07.007Z,2.33
2022-10-16T14:17:38.209Z,2.30
2022-10-16T14:20:08.097Z,1.17
2022-10-16T14:22:38.827Z,1.73
2022-10-16T14:25:27.318Z,3.37
2022-10-16T14:28:03.707Z,3.50
2022-10-16T14:30:33.375Z,1.70
2022-10-16T14:33:03.862Z,1.60
2022-10-16T14:35:34.733Z,2.67
2022-10-16T14:38:04.137Z,2.63
2022-10-16T14:40:35.571Z,2.40
2022-10-16T14:43:06.410Z,1.70
2022-10-16T14:45:37.013Z,2.67
2022-10-16T14:48:08.874Z,2.67
2022-10-16T14:50:37.419Z,2.60
2022-10-16T14:53:12.966Z,2.73
2022-10-16T14:55:43.286Z,1.90
2022-10-16T14:58:17.538Z,1.77
2022-10-16T15:00:45.552Z,1.70
2022-10-16T15:03:13.223Z,1.83
2022-10-16T15:05:41.789Z,2.23
2022-10-16T15:08:09.396Z,3.07
2022-10-16T15:10:42.166Z,2.93
2022-10-16T15:13:14.714Z,3.17
2022-10-16T15:15:45.605Z,3.87
2022-10-16T15:18:15.803Z,3.13
2022-10-16T15:20:43.502Z,3.70
2022-10-16T15:23:17.638Z,4.17
2022-10-16T15:25:47.268Z,3.57
2022-10-16T15:28:18.340Z,3.20
2022-10-16T15:30:47.452Z,3.70
2022-10-16T15:33:17.673Z,4.10
2022-10-16T15:35:49.399Z,3.33
2022-10-16T15:38:18.007Z,2.57
2022-10-16T15:40:46.500Z,2.70
2022-10-16T15:43:14.132Z,3.07
2022-10-16T15:45:43.825Z,3.33
2022-10-16T15:48:13.846Z,3.33
2022-10-16T15:53:12.400Z,3.10
2022-10-16T15:55:40.587Z,2.70
2022-10-16T15:58:08.542Z,1.80
2022-10-16T16:00:36.901Z,2.07
2022-10-16T16:03:06.162Z,2.30
2022-10-16T16:05:36.242Z,2.10
2022-10-16T16:08:04.157Z,3.33
2022-10-16T16:10:32.159Z,4.83
2022-10-16T16:13:00.099Z,4.50
2022-10-16T16:15:29.267Z,4.60
2022-10-16T16:17:56.997Z,2.40
2022-10-16T16:20:26.849Z,3.07
2022-10-16T16:23:02.825Z,3.10
2022-10-16T16:25:30.414Z,3.40
2022-10-16T16:27:59.091Z,3.43
2022-10-16T16:30:28.310Z,3.10
2022-10-16T16:32:57.064Z,4.40
2022-10-16T16:35:26.598Z,3.33
2022-10-16T16:37:54.216Z,3.10
2022-10-16T16:40:21.885Z,3.33
2022-10-16T16:42:50.447Z,3.30
2022-10-16T16:45:18.178Z,3.07
2022-10-16T16:47:46.279Z,2.90
2022-10-16T16:50:13.877Z,3.00
2022-10-16T16:52:43.251Z,3.30
2022-10-16T16:55:11.145Z,3.07
2022-10-16T16:57:38.714Z,3.23
2022-10-16T17:00:07.513Z,3.73
2022-10-16T17:02:35.322Z,3.83
2022-10-16T17:05:02.908Z,4.17
2022-10-16T17:07:34.039Z,3.33
2022-10-16T17:10:03.177Z,4.40
2022-10-16T17:12:31.216Z,3.10
2022-10-16T17:14:59.103Z,6.10
2022-10-16T17:17:26.962Z,4.00
2022-10-16T17:19:54.822Z,3.63
2022-10-16T17:22:23.363Z,3.70
2022-10-16T17:24:52.517Z,3.67
2022-10-16T17:27:22.761Z,3.77
2022-10-16T17:29:52.397Z,3.20
2022-10-16T17:32:20.647Z,3.30
2022-10-16T17:34:48.483Z,2.90
2022-10-16T17:37:18.135Z,3.13
2022-10-16T17:39:46.088Z,3.40
2022-10-16T17:42:14.702Z,2.60
2022-10-16T17:44:43.649Z,3.27
2022-10-16T17:47:12.010Z,2.50
2022-10-16T17:49:40.166Z,2.60
2022-10-16T17:52:08.278Z,2.20
2022-10-16T17:54:36.056Z,3.03
2022-10-16T17:57:08.485Z,3.00
2022-10-16T17:59:36.930Z,3.03
2022-10-16T18:02:06.600Z,3.80
2022-10-16T18:04:34.475Z,3.57
2022-10-16T18:07:02.598Z,3.10
2022-10-16T18:09:30.484Z,4.50
2022-10-16T18:12:00.636Z,4.33
2022-10-16T18:14:30.439Z,3.97
2022-10-16T18:16:59.564Z,4.20
2022-10-16T18:19:28.955Z,3.07
2022-10-16T18:21:56.665Z,3.30
2022-10-16T18:24:26.080Z,3.30
2022-10-16T18:26:56.538Z,3.20
2022-10-16T18:29:25.685Z,3.83
2022-10-16T18:31:53.444Z,5.23
2022-10-16T18:34:21.402Z,4.80
2022-10-16T18:36:52.785Z,4.60
2022-10-16T18:39:24.445Z,3.50
2022-10-16T18:41:55.156Z,4.13
2022-10-16T18:44:23.292Z,3.70
2022-10-16T18:46:52.482Z,3.40
2022-10-16T18:49:20.552Z,2.87
2022-10-16T18:51:48.674Z,3.70
2022-10-16T18:54:17.773Z,4.83
2022-10-16T18:56:45.878Z,4.70
2022-10-16T18:59:13.469Z,3.83
2022-10-16T19:01:43.435Z,4.23
2022-10-16T19:04:13.424Z,4.27
2022-10-16T19:06:43.732Z,3.00
2022-10-16T19:09:12.294Z,3.33
2022-10-16T19:11:42.086Z,3.57
2022-10-16T19:14:10.415Z,3.60
2022-10-16T19:16:38.699Z,3.70
2022-10-16T19:19:09.235Z,2.90
2022-10-16T19:21:39.964Z,2.80
2022-10-16T19:24:08.291Z,3.00
2022-10-16T19:26:38.236Z,2.87
2022-10-16T19:29:11.594Z,3.40
2022-10-16T19:31:39.679Z,3.33
2022-10-16T19:34:09.974Z,3.60
2022-10-16T19:36:39.202Z,2.77
2022-10-16T19:39:09.300Z,2.80
2022-10-16T19:41:38.319Z,2.80
2022-10-16T19:44:09.263Z,2.77
2022-10-16T19:46:38.321Z,2.80
2022-10-16T19:49:09.628Z,3.03
2022-10-16T19:51:38.474Z,3.60
2022-10-16T19:54:08.202Z,6.00
2022-10-16T19:56:37.382Z,5.60
2022-10-16T19:59:07.655Z,7.00
2022-10-16T20:01:36.509Z,6.87
2022-10-16T20:04:06.360Z,4.90
2022-10-16T20:06:34.026Z,3.57
2022-10-16T20:09:02.464Z,4.37
2022-10-16T20:11:32.678Z,3.77
2022-10-16T20:14:01.950Z,3.30
2022-10-16T20:16:30.864Z,3.90
2022-10-16T20:19:01.353Z,2.83
2022-10-16T20:21:32.926Z,2.83
2022-10-16T20:24:04.697Z,2.37
2022-10-16T20:26:32.404Z,3.20
2022-10-16T20:29:00.890Z,2.63
2022-10-16T20:31:30.759Z,2.90
2022-10-16T20:34:02.999Z,3.73
2022-10-16T20:36:33.397Z,2.63
2022-10-16T20:39:01.608Z,3.07
2022-10-16T20:41:29.400Z,2.60
2022-10-16T20:43:57.064Z,2.10
2022-10-16T20:46:26.808Z,2.00
2022-10-16T20:49:02.343Z,2.80
2022-10-16T20:51:40.844Z,5.97
2022-10-16T20:54:08.527Z,3.37
2022-10-16T20:56:39.060Z,3.00
2022-10-16T20:59:07.930Z,3.00
2022-10-16T21:01:36.749Z,3.30
2022-10-16T21:04:08.177Z,3.10
2022-10-16T21:06:38.414Z,2.80
2022-10-16T21:09:08.383Z,3.03
2022-10-16T21:11:37.207Z,2.97
2022-10-16T21:14:07.164Z,2.70
2022-10-16T21:16:35.559Z,3.43
2022-10-16T21:19:03.773Z,3.50
2022-10-16T21:21:33.183Z,3.60
2022-10-16T21:24:01.598Z,3.53
2022-10-16T21:26:31.258Z,2.80
2022-10-16T21:29:01.197Z,4.90
2022-10-16T21:31:29.400Z,3.57
2022-10-16T21:33:57.937Z,3.23
2022-10-16T21:36:28.446Z,3.23
2022-10-16T21:38:56.466Z,3.07
2022-10-16T21:41:26.975Z,4.40
2022-10-16T21:43:56.926Z,4.20
2022-10-16T21:46:27.312Z,3.93
2022-10-16T21:48:54.981Z,4.00
2022-10-16T21:51:27.582Z,4.60
2022-10-16T21:53:55.210Z,4.27
2022-10-16T21:56:23.485Z,3.67
2022-10-16T21:58:51.533Z,3.50
2022-10-16T22:01:23.584Z,3.00
2022-10-16T22:03:51.528Z,3.60
2022-10-16T22:08:57.399Z,3.77
2022-10-16T22:11:27.816Z,5.57
2022-10-16T22:13:57.811Z,4.40
2022-10-16T22:16:27.984Z,4.33
2022-10-16T22:18:58.159Z,3.60
2022-10-16T22:21:26.710Z,4.30
2022-10-16T22:23:54.747Z,4.00
2022-10-16T22:26:22.729Z,4.27
2022-10-16T22:28:51.377Z,5.70
2022-10-16T22:31:21.494Z,4.50
2022-10-16T22:33:55.625Z,4.07
2022-10-16T22:36:24.139Z,2.77
2022-10-16T22:38:51.887Z,3.23
2022-10-16T22:41:20.404Z,3.20
2022-10-16T22:43:49.298Z,3.30
2022-10-16T22:46:19.545Z,3.10
2022-10-16T22:48:47.765Z,2.97
2022-10-16T22:51:17.288Z,2.50
2022-10-16T22:53:46.577Z,3.13
2022-10-16T22:56:15.462Z,3.00
2022-10-16T22:58:43.478Z,2.80
2022-10-16T23:01:14.342Z,3.20
2022-10-16T23:03:42.123Z,3.03
2022-10-16T23:06:10.134Z,3.77
2022-10-16T23:08:39.110Z,3.83
2022-10-16T23:11:08.108Z,4.53
2022-10-16T23:13:38.270Z,3.90
2022-10-16T23:16:08.461Z,3.27
2022-10-16T23:18:36.104Z,2.53
2022-10-16T23:21:07.039Z,3.47
2022-10-16T23:23:36.262Z,3.20
2022-10-16T23:26:09.082Z,3.47
2022-10-16T23:28:36.652Z,3.67
2022-10-16T23:31:05.232Z,3.00
2022-10-16T23:33:33.394Z,3.40
2022-10-16T23:36:01.757Z,2.37
2022-10-16T23:38:30.519Z,2.73
2022-10-16T23:40:58.114Z,2.47
2022-10-16T23:43:27.525Z,4.03
2022-10-16T23:45:55.348Z,2.07
2022-10-16T23:48:23.448Z,2.30
2022-10-16T23:50:51.052Z,2.30
2022-10-16T23:53:19.286Z,2.20
2022-10-16T23:55:46.929Z,2.40
2022-10-16T23:58:15.328Z,3.17
